Time;durP1;ratioP1;P1;durP2;ratioP2;P2;SDS_P1;SDS_P2;PMS_P1;PMS_P2;Temp;Humidity;BMP_temperature;BMP_pressure;BME280_temperature;BME280_humidity;BME280_pressure;Samples;Min_cycle;Max_cycle;Signal;HPM_P1;HPM_P2
2023/05/16 00:01:18;;;;;;;37.00;25.50;;;;;;;10.68;100.00;99799.05;111064;1207;97591;-67
2023/05/16 00:03:44;;;;;;;39.20;25.80;;;;;;;10.66;100.00;99799.31;111025;1208;98946;-64
2023/05/16 00:06:10;;;;;;;38.80;25.10;;;;;;;10.64;100.00;99798.40;111000;1206;140196;-67
2023/05/16 00:08:35;;;;;;;41.40;26.30;;;;;;;10.61;100.00;99797.10;111029;1209;99992;-67
2023/05/16 00:11:01;;;;;;;46.50;28.10;;;;;;;10.58;100.00;99801.05;110842;1206;139590;-67
2023/05/16 00:13:29;;;;;;;43.40;28.00;;;;;;;10.55;100.00;99801.03;111067;1206;98059;-67
2023/05/16 00:15:54;;;;;;;35.60;25.50;;;;;;;10.51;100.00;99796.61;111056;1208;110804;-68
2023/05/16 00:18:22;;;;;;;38.20;23.70;;;;;;;10.50;100.00;99800.06;110927;1206;139288;-66
2023/05/16 00:20:48;;;;;;;39.60;26.70;;;;;;;10.48;100.00;99799.67;111030;1206;97702;-67
2023/05/16 00:23:14;;;;;;;37.20;24.80;;;;;;;10.45;100.00;99797.85;111003;1208;139403;-64
2023/05/16 00:25:40;;;;;;;39.40;24.40;;;;;;;10.43;100.00;99795.12;111057;1208;112643;-64
2023/05/16 00:28:06;;;;;;;38.10;25.50;;;;;;;10.39;100.00;99796.59;111163;1209;97651;-64
2023/05/16 00:30:32;;;;;;;38.30;25.60;;;;;;;10.38;100.00;99797.05;111006;1206;140140;-64
2023/05/16 00:32:57;;;;;;;34.90;23.60;;;;;;;10.37;100.00;99800.13;111133;1206;97788;-64
2023/05/16 00:35:23;;;;;;;31.40;22.50;;;;;;;10.36;100.00;99802.30;110838;1211;139442;-65
2023/05/16 00:37:49;;;;;;;34.60;23.90;;;;;;;10.38;100.00;99805.07;111263;1206;97708;-65
2023/05/16 00:40:15;;;;;;;35.90;24.00;;;;;;;10.37;100.00;99801.59;111018;1206;99139;-65
2023/05/16 00:42:40;;;;;;;30.20;22.50;;;;;;;10.34;100.00;99807.42;110908;1206;140649;-65
2023/05/16 00:45:06;;;;;;;52.30;22.50;;;;;;;10.32;100.00;99808.60;110941;1209;97611;-65
2023/05/16 00:47:32;;;;;;;31.30;21.60;;;;;;;10.30;100.00;99815.52;110907;1206;140616;-65
2023/05/16 00:49:58;;;;;;;36.90;22.40;;;;;;;10.29;100.00;99813.98;110958;1208;99172;-64
2023/05/16 00:52:23;;;;;;;47.10;23.70;;;;;;;10.26;100.00;99820.20;111024;1206;139375;-65
2023/05/16 00:54:50;;;;;;;30.50;21.70;;;;;;;10.25;100.00;99827.42;111203;1204;97746;-65
2023/05/16 00:57:16;;;;;;;30.10;22.40;;;;;;;10.22;100.00;99825.59;110967;1208;97737;-65
2023/05/16 00:59:42;;;;;;;33.10;22.40;;;;;;;10.19;100.00;99826.98;110881;1206;139224;-65
2023/05/16 01:02:08;;;;;;;34.40;21.80;;;;;;;10.18;100.00;99837.23;110982;1206;111612;-64
2023/05/16 01:04:34;;;;;;;34.40;22.70;;;;;;;10.17;100.00;99834.10;110920;1206;139778;-65
2023/05/16 01:07:01;;;;;;;38.20;21.60;;;;;;;10.15;100.00;99840.98;110989;1209;98110;-65
2023/05/16 01:09:26;;;;;;;28.30;20.80;;;;;;;10.13;100.00;99843.75;111025;1206;97889;-65
2023/05/16 01:27:30;;;;;;;18.80;13.80;;;;;;;10.51;100.00;99875.21;110829;1206;649324;-66
2023/05/16 01:29:59;;;;;;;15.70;12.50;;;;;;;10.51;100.00;99884.51;111159;1211;93937;-66
2023/05/16 01:32:58;;;;;;;;;;;;;;;;;;;;;
2023/05/16 01:35:24;;;;;;;24.30;15.50;;;;;;;10.40;100.00;99886.92;111190;1209;107860;-66
2023/05/16 01:38:10;;;;;;;18.50;14.20;;;;;;;10.38;100.00;99894.88;110986;1206;138411;-66
2023/05/16 01:52:12;;;;;;;14.60;12.30;;;;;;;10.62;100.00;99905.16;110866;1206;649268;-65
2023/05/16 01:54:42;;;;;;;16.90;11.30;;;;;;;10.57;100.00;99909.52;111130;1212;94021;-69
2023/05/16 01:57:09;;;;;;;15.10;12.60;;;;;;;10.50;100.00;99915.28;110968;1208;138833;-65
2023/05/16 01:59:35;;;;;;;16.10;12.70;;;;;;;10.45;100.00;99917.34;111107;1208;93907;-65
2023/05/16 02:02:01;;;;;;;20.90;14.20;;;;;;;10.41;100.00;99910.42;111139;1211;94030;-66
2023/05/16 02:04:26;;;;;;;18.40;14.60;;;;;;;10.39;100.00;99912.50;111176;1211;137880;-66
2023/05/16 02:06:52;;;;;;;20.40;16.10;;;;;;;10.39;100.00;99918.42;111173;1209;95331;-66
2023/05/16 02:09:18;;;;;;;17.70;14.00;;;;;;;10.38;100.00;99924.15;111113;1211;138329;-67
2023/05/16 02:11:43;;;;;;;18.40;13.10;;;;;;;10.39;100.00;99924.64;111245;1208;94005;-66
2023/05/16 02:14:08;;;;;;;22.80;15.30;;;;;;;10.39;100.00;99929.30;111017;1208;138647;-67
2023/05/16 02:16:35;;;;;;;18.70;13.40;;;;;;;10.39;100.00;99931.63;111234;1211;94920;-66
2023/05/16 02:19:00;;;;;;;26.80;16.60;;;;;;;10.38;100.00;99934.36;111089;1208;99748;-66
2023/05/16 02:21:25;;;;;;;24.50;17.30;;;;;;;10.37;100.00;99939.60;111050;1211;138632;-67
2023/05/16 02:23:51;;;;;;;20.80;16.30;;;;;;;10.35;100.00;99939.70;111340;1208;94976;-66
2023/05/16 02:26:16;;;;;;;22.50;16.50;;;;;;;10.33;100.00;99937.68;111101;1211;138765;-66
2023/05/16 02:28:41;;;;;;;21.90;14.70;;;;;;;10.31;100.00;99944.05;111161;1208;95320;-67
2023/05/16 02:31:06;;;;;;;23.10;14.80;;;;;;;10.28;100.00;99949.02;111101;1207;96392;-67
2023/05/16 02:33:33;;;;;;;22.90;15.80;;;;;;;10.26;100.00;99955.90;110975;1208;139568;-67
2023/05/16 02:35:59;;;;;;;20.30;12.90;;;;;;;10.24;100.00;99948.50;111222;1211;94991;-66
2023/05/16 02:38:24;;;;;;;22.10;14.90;;;;;;;10.23;100.00;99949.82;110944;1211;138727;-67
2023/05/16 02:40:49;;;;;;;22.40;13.60;;;;;;;10.21;100.00;99953.85;111115;1208;95002;-67
2023/05/16 02:43:15;;;;;;;22.40;14.40;;;;;;;10.19;100.00;99959.47;111202;1211;94984;-67
2023/05/16 02:45:40;;;;;;;16.40;11.40;;;;;;;10.19;100.00;99965.21;110973;1209;138288;-66
2023/05/16 02:48:06;;;;;;;20.20;13.80;;;;;;;10.18;100.00;99974.52;111110;1212;94914;-67
2023/05/16 02:50:32;;;;;;;19.50;14.70;;;;;;;10.18;100.00;99985.58;110972;1208;138109;-68
2023/05/16 02:52:58;;;;;;;22.20;13.80;;;;;;;10.20;100.00;99988.04;111130;1208;95575;-68
2023/05/16 02:55:25;;;;;;;19.60;13.90;;;;;;;10.20;100.00;99991.03;111103;1212;94990;-68
2023/05/16 02:57:50;;;;;;;15.90;12.50;;;;;;;10.20;100.00;99998.73;111093;1208;137979;-67
2023/05/16 03:00:16;;;;;;;23.30;15.00;;;;;;;10.19;100.00;100000.02;111161;1213;94962;-66
2023/05/16 03:02:42;;;;;;;15.20;12.00;;;;;;;10.19;100.00;100002.50;111019;1208;138886;-66
2023/05/16 03:05:08;;;;;;;18.30;14.00;;;;;;;10.19;100.00;100002.15;111222;1208;94927;-66
2023/05/16 03:07:34;;;;;;;21.70;15.60;;;;;;;10.18;100.00;99999.86;111064;1210;95305;-66
2023/05/16 03:10:00;;;;;;;24.10;15.90;;;;;;;10.19;100.00;100006.06;110982;1213;137979;-68
2023/05/16 03:12:25;;;;;;;24.00;15.00;;;;;;;10.19;100.00;100006.44;111195;1209;94951;-66
2023/05/16 03:14:50;;;;;;;23.20;16.40;;;;;;;10.18;100.00;100009.33;111050;1214;140303;-67
2023/05/16 03:17:16;;;;;;;18.30;13.70;;;;;;;10.18;100.00;100013.61;111132;1208;94067;-67
2023/05/16 03:19:41;;;;;;;24.40;15.50;;;;;;;10.18;100.00;100012.91;111139;1212;108936;-66
2023/05/16 03:22:06;;;;;;;21.30;15.20;;;;;;;10.18;100.00;100009.17;111009;1210;138485;-67
2023/05/16 03:24:31;;;;;;;22.30;16.70;;;;;;;10.18;100.00;100013.60;111111;1208;94984;-66
2023/05/16 03:26:58;;;;;;;19.70;15.00;;;;;;;10.19;100.00;100013.39;110991;1209;139244;-67
2023/05/16 03:29:25;;;;;;;23.90;16.50;;;;;;;10.19;100.00;100021.09;111102;1211;94984;-67
2023/05/16 03:31:51;;;;;;;21.80;16.50;;;;;;;10.18;100.00;100018.98;111078;1208;94951;-67
2023/05/16 03:34:16;;;;;;;25.90;16.70;;;;;;;10.18;100.00;100021.10;111137;1208;138720;-67
2023/05/16 03:36:41;;;;;;;23.90;16.00;;;;;;;10.18;100.00;100031.27;111120;1208;94998;-66
2023/05/16 03:39:07;;;;;;;24.80;16.70;;;;;;;10.18;100.00;100033.45;111108;1208;138260;-67
2023/05/16 03:41:33;;;;;;;27.00;18.00;;;;;;;10.18;100.00;100037.17;111098;1212;107965;-66
2023/05/16 03:43:59;;;;;;;28.50;20.40;;;;;;;10.20;100.00;100043.17;111205;1208;94862;-67
2023/05/16 03:46:25;;;;;;;24.30;18.80;;;;;;;10.22;100.00;100044.35;111132;1209;137936;-67
2023/05/16 03:48:50;;;;;;;25.00;18.50;;;;;;;10.24;100.00;100045.13;110997;1211;100508;-66
2023/05/16 03:51:15;;;;;;;24.50;19.10;;;;;;;10.25;100.00;100047.91;111093;1208;138952;-67
2023/05/16 03:53:41;;;;;;;29.50;19.80;;;;;;;10.26;100.00;100045.05;111148;1214;95012;-67
2023/05/16 03:56:06;;;;;;;27.60;18.80;;;;;;;10.25;100.00;100053.08;111082;1214;94050;-66
2023/05/16 03:58:32;;;;;;;31.60;19.20;;;;;;;10.24;100.00;100055.83;111099;1208;95027;-67
2023/05/16 04:00:58;;;;;;;28.90;19.40;;;;;;;10.22;100.00;100059.48;111113;1208;95942;-66
2023/05/16 04:03:27;;;;;;;24.10;18.90;;;;;;;10.22;100.00;100061.67;110993;1214;138122;-67
2023/05/16 04:05:54;;;;;;;24.40;18.50;;;;;;;10.22;100.00;100068.64;111103;1213;94891;-67
2023/05/16 04:08:19;;;;;;;26.90;16.20;;;;;;;10.22;100.00;100072.52;111028;1213;138547;-69
2023/05/16 04:10:44;;;;;;;24.30;17.30;;;;;;;10.22;100.00;100075.39;111129;1208;94884;-66
2023/05/16 04:13:09;;;;;;;25.80;18.10;;;;;;;10.24;100.00;100077.61;111106;1208;94881;-67
2023/05/16 04:15:35;;;;;;;21.30;16.40;;;;;;;10.26;100.00;100086.96;111062;1208;138697;-67
2023/05/16 04:18:00;;;;;;;27.90;17.60;;;;;;;10.27;100.00;100088.18;111129;1209;95029;-66
2023/05/16 04:20:25;;;;;;;18.70;15.30;;;;;;;10.28;100.00;100088.50;110959;1211;138454;-67
2023/05/16 04:22:50;;;;;;;25.60;18.00;;;;;;;10.27;100.00;100094.05;111208;1212;95065;-70
2023/05/16 04:25:16;;;;;;;29.20;18.20;;;;;;;10.29;100.00;100096.11;111033;1208;93980;-68
2023/05/16 04:27:41;;;;;;;25.20;17.10;;;;;;;10.30;100.00;100101.24;110943;1214;138919;-68
2023/05/16 04:30:10;;;;;;;27.30;17.00;;;;;;;10.31;100.00;100106.52;111215;1208;93952;-68
2023/05/16 04:32:35;;;;;;;24.70;17.10;;;;;;;10.33;100.00;100115.73;111081;1210;140149;-68
2023/05/16 04:35:01;;;;;;;21.80;17.70;;;;;;;10.33;100.00;100121.61;111377;1210;94941;-68
2023/05/16 04:37:26;;;;;;;24.80;17.90;;;;;;;10.34;100.00;100124.23;111322;1212;94976;-66
2023/05/16 04:39:53;;;;;;;21.10;16.50;;;;;;;10.36;100.00;100135.74;110952;1213;139496;-67
2023/05/16 04:42:18;;;;;;;21.10;16.10;;;;;;;10.37;100.00;100141.23;111127;1212;94987;-67
2023/05/16 04:44:44;;;;;;;24.40;17.90;;;;;;;10.39;100.00;100145.23;111062;1212;139173;-67
2023/05/16 04:47:09;;;;;;;24.30;17.00;;;;;;;10.42;100.00;100149.01;111109;1214;94985;-67
2023/05/16 04:49:35;;;;;;;21.20;17.30;;;;;;;10.45;100.00;100154.03;111170;1213;95427;-67
2023/05/16 04:52:01;;;;;;;25.50;17.00;;;;;;;10.47;100.00;100158.21;111078;1214;138289;-67
2023/05/16 04:54:26;;;;;;;26.20;18.80;;;;;;;10.48;100.00;100162.09;111095;1211;94924;-67
2023/05/16 04:56:51;;;;;;;31.20;19.80;;;;;;;10.52;100.00;100170.29;110956;1211;140300;-67
2023/05/16 04:59:16;;;;;;;23.00;16.20;;;;;;;10.56;100.00;100170.97;111103;1213;94971;-67
2023/05/16 05:01:42;;;;;;;23.10;18.20;;;;;;;10.61;100.00;100167.48;111047;1214;94999;-67
2023/05/16 05:04:07;;;;;;;22.90;16.80;;;;;;;10.69;100.00;100171.17;110958;1209;138891;-67
2023/05/16 05:06:32;;;;;;;20.80;15.00;;;;;;;10.79;100.00;100177.47;111106;1213;95003;-67
2023/05/16 05:08:57;;;;;;;17.00;13.10;;;;;;;10.87;100.00;100184.04;111050;1214;139360;-67
2023/05/16 05:11:22;;;;;;;23.50;14.50;;;;;;;10.92;100.00;100186.23;111076;1211;95104;-69
2023/05/16 05:13:48;;;;;;;21.50;14.00;;;;;;;10.97;100.00;100184.75;111117;1208;94962;-67
2023/05/16 05:16:13;;;;;;;19.20;12.00;;;;;;;10.98;100.00;100184.30;111038;1214;138432;-69
2023/05/16 05:18:38;;;;;;;14.50;10.20;;;;;;;11.01;100.00;100178.45;111119;1208;95383;-67
2023/05/16 05:21:03;;;;;;;16.80;11.70;;;;;;;11.06;100.00;100180.53;110926;1211;138963;-67
2023/05/16 05:23:29;;;;;;;17.60;13.00;;;;;;;11.11;100.00;100187.42;110999;1208;94987;-67
2023/05/16 05:25:55;;;;;;;24.40;13.70;;;;;;;11.15;100.00;100185.05;111111;1208;94929;-69
2023/05/16 05:28:20;;;;;;;17.90;11.70;;;;;;;11.20;100.00;100182.13;111062;1214;139342;-68
2023/05/16 05:30:47;;;;;;;19.20;12.80;;;;;;;11.23;100.00;100184.23;111010;1212;94325;-68
2023/05/16 05:33:15;;;;;;;18.90;11.70;;;;;;;11.25;100.00;100184.66;110966;1208;139100;-68
2023/05/16 05:35:40;;;;;;;14.20;11.00;;;;;;;11.28;100.00;100183.79;111120;1211;95537;-68
2023/05/16 05:38:06;;;;;;;22.70;12.90;;;;;;;11.33;100.00;100181.94;111175;1209;94116;-67
2023/05/16 05:40:31;;;;;;;14.70;12.10;;;;;;;11.39;100.00;100181.09;110934;1208;138726;-66
2023/05/16 05:42:56;;;;;;;11.80;10.20;;;;;;;11.46;100.00;100185.90;111112;1212;95414;-67
2023/05/16 05:45:22;;;;;;;15.70;12.40;;;;;;;11.52;100.00;100183.23;111070;1209;139485;-67
2023/05/16 05:47:47;;;;;;;15.30;9.50;;;;;;;11.58;100.00;100189.33;111012;1211;94993;-67
2023/05/16 05:50:13;;;;;;;15.50;11.50;;;;;;;11.64;100.00;100192.02;110908;1209;140688;-68
2023/05/16 05:52:39;;;;;;;17.40;11.00;;;;;;;11.70;100.00;100196.35;110909;1212;109137;-69
2023/05/16 05:55:05;;;;;;;18.80;12.00;;;;;;;11.77;100.00;100199.76;110951;1212;96315;-76
2023/05/16 05:57:30;;;;;;;12.50;9.90;;;;;;;11.87;100.00;100209.57;110975;1208;138564;-69
2023/05/16 05:59:55;;;;;;;19.00;11.70;;;;;;;11.92;100.00;100209.86;110696;1214;96253;-68
2023/05/16 06:02:20;;;;;;;15.90;11.30;;;;;;;11.90;100.00;100211.02;110886;1209;140644;-68
2023/05/16 06:04:46;;;;;;;18.70;11.90;;;;;;;11.88;100.00;100213.66;111072;1212;96336;-68
2023/05/16 06:07:11;;;;;;;18.50;11.70;;;;;;;11.86;100.00;100222.88;111079;1213;96348;-68
2023/05/16 06:09:37;;;;;;;20.80;13.50;;;;;;;11.81;100.00;100222.48;111017;1210;139429;-68
2023/05/16 06:12:03;;;;;;;22.50;15.10;;;;;;;11.84;100.00;100225.67;111126;1209;96413;-68
2023/05/16 06:14:28;;;;;;;27.20;16.70;;;;;;;11.94;100.00;100224.06;112898;1207;139164;-69
2023/05/16 06:16:53;;;;;;;20.90;14.20;;;;;;;11.98;100.00;100230.66;111931;1209;96272;-68
2023/05/16 06:19:19;;;;;;;15.60;12.70;;;;;;;11.97;100.00;100228.36;110987;1212;96340;-67
2023/05/16 06:21:44;;;;;;;16.80;12.40;;;;;;;12.00;100.00;100229.27;110887;1212;140746;-68
2023/05/16 06:24:11;;;;;;;17.10;13.80;;;;;;;12.02;100.00;100230.40;110992;1221;96347;-67
2023/05/16 06:26:36;;;;;;;17.30;12.50;;;;;;;12.00;100.00;100238.92;110930;1221;139665;-67
2023/05/16 06:29:01;;;;;;;13.80;10.30;;;;;;;11.98;100.00;100245.14;111089;1210;96323;-67
2023/05/16 06:31:27;;;;;;;17.30;11.90;;;;;;;12.02;100.00;100251.20;111176;1210;99025;-68
2023/05/16 06:33:52;;;;;;;16.40;13.40;;;;;;;12.08;100.00;100262.14;110960;1214;139256;-68
2023/05/16 06:36:17;;;;;;;14.00;11.70;;;;;;;12.14;100.00;100274.72;111223;1209;96308;-68
2023/05/16 06:38:42;;;;;;;13.90;11.70;;;;;;;12.15;100.00;100286.27;110985;1210;139412;-68
2023/05/16 06:41:08;;;;;;;15.50;11.60;;;;;;;12.24;99.86;100292.79;111201;1209;96360;-68
2023/05/16 06:43:33;;;;;;;15.60;12.00;;;;;;;12.34;100.00;100299.73;111161;1210;96276;-68
2023/05/16 06:45:58;;;;;;;17.80;12.90;;;;;;;12.40;100.00;100309.63;111033;1209;138687;-68
2023/05/16 06:48:23;;;;;;;12.80;10.80;;;;;;;12.46;99.92;100314.84;110998;1212;96747;-68
2023/05/16 06:50:52;;;;;;;13.00;10.70;;;;;;;12.44;99.54;100319.92;110939;1210;139477;-68
2023/05/16 06:53:18;;;;;;;18.70;12.90;;;;;;;12.38;99.45;100310.61;111156;1212;96244;-68
2023/05/16 06:55:44;;;;;;;20.20;11.70;;;;;;;12.39;99.46;100309.66;111044;1209;96227;-68
2023/05/16 06:58:09;;;;;;;16.40;11.00;;;;;;;12.43;99.64;100306.95;111059;1209;139007;-69
2023/05/16 07:00:35;;;;;;;13.90;10.90;;;;;;;12.48;99.59;100301.80;111048;1214;97175;-69
2023/05/16 07:03:01;;;;;;;9.90;8.80;;;;;;;12.46;99.45;100299.76;110975;1210;139959;-69
2023/05/16 07:05:26;;;;;;;15.40;10.90;;;;;;;12.41;99.21;100305.98;111186;1212;95517;-68
2023/05/16 07:07:51;;;;;;;16.60;11.10;;;;;;;12.42;99.15;100315.02;111121;1212;97129;-68
2023/05/16 07:10:16;;;;;;;15.10;10.30;;;;;;;12.47;99.18;100321.77;111003;1212;139389;-68
2023/05/16 07:12:42;;;;;;;15.40;10.50;;;;;;;12.57;99.11;100323.90;111082;1210;96680;-69
2023/05/16 07:15:08;;;;;;;13.40;10.20;;;;;;;12.65;98.83;100320.55;110969;1212;139032;-68
2023/05/16 07:17:34;;;;;;;11.40;8.50;;;;;;;12.78;98.88;100322.52;111066;1209;96195;-68
2023/05/16 07:20:00;;;;;;;14.00;8.80;;;;;;;12.87;98.54;100310.83;111005;1212;96374;-68
2023/05/16 07:22:25;;;;;;;13.20;9.30;;;;;;;12.94;98.33;100315.79;111043;1210;138134;-69
2023/05/16 07:24:53;;;;;;;14.20;8.80;;;;;;;12.97;97.80;100314.36;111096;1210;96311;-70
2023/05/16 07:27:18;;;;;;;10.60;7.40;;;;;;;13.00;97.61;100308.08;110937;1210;139993;-70
2023/05/16 07:29:43;;;;;;;9.10;7.30;;;;;;;13.00;97.32;100303.41;111052;1209;95196;-69
2023/05/16 07:32:09;;;;;;;10.60;6.90;;;;;;;13.04;97.08;100299.97;110982;1212;139598;-69
2023/05/16 07:34:34;;;;;;;12.50;8.40;;;;;;;13.08;96.92;100306.53;111226;1209;95132;-69
2023/05/16 07:36:59;;;;;;;11.40;8.50;;;;;;;13.15;96.93;100308.11;111091;1210;96249;-69
2023/05/16 07:39:25;;;;;;;10.70;7.00;;;;;;;13.19;96.66;100310.05;110970;1212;138498;-70
2023/05/16 07:41:50;;;;;;;10.60;7.80;;;;;;;13.24;96.43;100317.45;111010;1212;96621;-69
2023/05/16 07:44:16;;;;;;;11.50;7.50;;;;;;;13.29;95.94;100312.27;111021;1209;138324;-67
2023/05/16 07:46:43;;;;;;;7.90;6.50;;;;;;;13.36;95.76;100317.29;111079;1212;96796;-67
2023/05/16 07:49:09;;;;;;;9.90;5.90;;;;;;;13.41;95.31;100316.65;111136;1209;94896;-68
2023/05/16 07:51:35;;;;;;;9.10;6.10;;;;;;;13.41;94.83;100314.50;111012;1212;138554;-68
2023/05/16 07:54:00;;;;;;;8.90;5.90;;;;;;;13.43;94.50;100308.77;111163;1209;96229;-67
2023/05/16 07:56:26;;;;;;;7.80;5.70;;;;;;;13.48;94.45;100304.32;111046;1212;138093;-70
2023/05/16 07:58:52;;;;;;;10.00;6.00;;;;;;;13.60;94.61;100300.71;111128;1210;96194;-70
2023/05/16 08:01:17;;;;;;;10.60;6.80;;;;;;;13.74;94.58;100308.85;111151;1212;96331;-68
2023/05/16 08:03:42;;;;;;;8.30;6.00;;;;;;;13.80;94.14;100311.88;111005;1209;139114;-67
2023/05/16 08:06:08;;;;;;;7.30;4.60;;;;;;;13.76;93.17;100318.02;111230;1220;96795;-68
2023/05/16 08:08:33;;;;;;;7.20;5.50;;;;;;;13.71;92.23;100313.89;110980;1212;139753;-67
2023/05/16 08:10:58;;;;;;;8.10;5.50;;;;;;;13.75;92.42;100309.35;111136;1211;96251;-68
2023/05/16 08:13:23;;;;;;;8.50;6.10;;;;;;;13.86;92.25;100308.44;111174;1209;96232;-68
2023/05/16 08:15:48;;;;;;;10.30;5.80;;;;;;;13.98;91.96;100314.13;110991;1209;138769;-67
2023/05/16 08:18:14;;;;;;;6.50;5.90;;;;;;;13.99;90.06;100316.60;111201;1210;96256;-69
2023/05/16 08:20:41;;;;;;;7.10;5.90;;;;;;;14.03;90.17;100320.35;111067;1209;138102;-68
2023/05/16 08:23:07;;;;;;;10.10;5.60;;;;;;;14.15;90.19;100324.23;111241;1212;98015;-68
2023/05/16 08:25:32;;;;;;;8.20;5.90;;;;;;;14.21;89.72;100316.70;111127;1212;97635;-68
2023/05/16 08:27:58;;;;;;;7.90;6.30;;;;;;;14.30;89.68;100309.09;110856;1210;138574;-68
2023/05/16 08:30:24;;;;;;;8.90;6.00;;;;;;;14.41;89.23;100310.33;110591;1212;97289;-67
2023/05/16 08:32:50;;;;;;;11.00;6.20;;;;;;;14.51;88.88;100310.63;110766;1212;140494;-68
2023/05/16 08:35:15;;;;;;;12.30;5.70;;;;;;;14.61;88.73;100323.61;110894;1209;99393;-67
2023/05/16 08:37:40;;;;;;;8.20;5.80;;;;;;;14.68;88.29;100327.34;110632;1212;97997;-68
2023/05/16 08:40:09;;;;;;;7.10;5.10;;;;;;;14.76;87.63;100328.20;110487;1209;138532;-66
2023/05/16 08:42:35;;;;;;;6.10;5.30;;;;;;;14.88;87.89;100331.23;111262;1212;109880;-67
2023/05/16 08:45:01;;;;;;;7.80;5.70;;;;;;;14.93;87.00;100324.73;110670;1212;138148;-67
2023/05/16 08:47:30;;;;;;;6.10;5.20;;;;;;;14.91;86.26;100330.27;110628;1209;96150;-67
2023/05/16 08:49:57;;;;;;;6.90;5.90;;;;;;;14.90;86.32;100330.50;110740;1212;96340;-67
2023/05/16 08:52:29;;;;;;;7.40;4.60;;;;;;;15.03;86.79;100335.59;110380;1209;138087;-66
2023/05/16 08:54:56;;;;;;;9.40;5.60;;;;;;;15.18;86.56;100339.60;110803;1210;101885;-67
2023/05/16 08:57:22;;;;;;;8.70;6.60;;;;;;;15.31;86.16;100338.96;110505;1221;138735;-68
2023/05/16 08:59:48;;;;;;;7.40;4.60;;;;;;;15.43;85.54;100345.67;110720;1210;96337;-66
2023/05/16 09:02:14;;;;;;;6.00;5.40;;;;;;;15.44;85.11;100340.02;111078;1209;138689;-66
2023/05/16 09:04:40;;;;;;;6.70;5.90;;;;;;;15.51;85.29;100340.42;110964;1212;99379;-66
2023/05/16 09:07:05;;;;;;;9.50;6.50;;;;;;;15.65;85.11;100343.47;110931;1209;96302;-68
2023/05/16 09:09:30;;;;;;;5.30;4.80;;;;;;;15.72;84.94;100354.85;110967;1212;138504;-66
2023/05/16 09:11:56;;;;;;;5.80;5.20;;;;;;;15.71;84.69;100355.11;110996;1209;96276;-66
2023/05/16 09:14:21;;;;;;;8.20;5.10;;;;;;;15.72;84.90;100356.25;110812;1212;139865;-67
2023/05/16 09:17:03;;;;;;;10.40;5.50;;;;;;;15.83;85.18;100350.23;111000;1210;96346;-66
2023/05/16 09:19:40;;;;;;;5.50;4.90;;;;;;;15.94;84.89;100353.88;110968;1210;96303;-67
2023/05/16 09:22:12;;;;;;;6.90;5.20;;;;;;;15.96;84.13;100346.84;110978;1212;138492;-67
2023/05/16 09:24:39;;;;;;;6.10;5.50;;;;;;;15.98;84.14;100344.17;110927;1212;99119;-65
2023/05/16 09:27:13;;;;;;;7.90;4.20;;;;;;;16.03;83.97;100346.55;110793;1209;139337;-64
2023/05/16 09:29:42;;;;;;;8.00;5.00;;;;;;;16.05;83.41;100349.66;110954;1212;96305;-66
2023/05/16 09:32:16;;;;;;;6.70;5.40;;;;;;;16.12;83.46;100344.66;110572;1212;138217;-66
2023/05/16 09:34:50;;;;;;;7.60;4.40;;;;;;;16.16;82.95;100343.80;110587;1209;110010;-65
2023/05/16 09:37:16;;;;;;;6.40;4.70;;;;;;;16.11;82.15;100347.92;111048;1209;99333;-66
2023/05/16 09:39:48;;;;;;;7.50;5.10;;;;;;;16.20;82.58;100347.48;110487;1212;138134;-65
2023/05/16 09:42:14;;;;;;;6.70;5.10;;;;;;;16.27;82.63;100348.04;110577;1210;97639;-65
2023/05/16 09:44:40;;;;;;;7.20;5.50;;;;;;;16.44;83.22;100355.48;110611;1212;138260;-65
2023/05/16 09:47:06;;;;;;;8.10;4.50;;;;;;;16.65;82.80;100361.77;110557;1212;96408;-65
2023/05/16 09:49:31;;;;;;;7.10;4.40;;;;;;;16.71;82.23;100360.94;110483;1209;96212;-66
2023/05/16 09:52:01;;;;;;;8.20;4.20;;;;;;;16.79;82.31;100365.56;110441;1212;138792;-65
2023/05/16 09:54:34;;;;;;;8.70;4.40;;;;;;;16.80;80.91;100369.25;110591;1210;96234;-66
2023/05/16 09:57:00;;;;;;;7.90;4.30;;;;;;;16.74;80.41;100363.98;110874;1209;138570;-64
2023/05/16 09:59:30;;;;;;;6.50;4.40;;;;;;;16.62;79.61;100364.29;110675;1212;96240;-64
2023/05/16 10:02:00;;;;;;;4.80;3.90;;;;;;;16.61;79.73;100365.61;110660;1210;107231;-64
2023/05/16 10:04:26;;;;;;;8.20;4.90;;;;;;;16.75;80.23;100369.84;110403;1212;140254;-64
2023/05/16 10:06:56;;;;;;;7.80;4.20;;;;;;;16.90;79.85;100372.14;110522;1212;96224;-64
2023/05/16 10:09:23;;;;;;;5.10;3.90;;;;;;;16.90;79.11;100372.85;110447;1212;139955;-63
2023/05/16 10:11:50;;;;;;;5.70;4.30;;;;;;;16.82;79.14;100377.27;110585;1212;96251;-64
2023/05/16 10:14:20;;;;;;;7.90;4.50;;;;;;;16.72;78.55;100376.89;110472;1209;138340;-64
2023/05/16 10:16:50;;;;;;;5.60;4.20;;;;;;;16.67;78.23;100374.39;110849;1212;95323;-64
2023/05/16 10:19:18;;;;;;;7.70;4.90;;;;;;;16.68;77.84;100379.36;110510;1212;97943;-65
2023/05/16 10:21:50;;;;;;;6.60;4.70;;;;;;;16.65;77.01;100377.25;110398;1212;139643;-64
2023/05/16 10:24:28;;;;;;;7.60;4.40;;;;;;;16.65;77.20;100382.83;110540;1209;96225;-65
2023/05/16 10:26:54;;;;;;;5.00;4.40;;;;;;;16.75;77.22;100391.33;110457;1212;138945;-64
2023/05/16 10:29:19;;;;;;;8.70;4.50;;;;;;;16.79;77.04;100386.34;110665;1212;96310;-64
2023/05/16 10:31:47;;;;;;;5.10;4.30;;;;;;;16.94;76.86;100393.34;110551;1212;96312;-67
2023/05/16 10:34:14;;;;;;;8.50;5.20;;;;;;;17.02;76.61;100395.30;110434;1212;139036;-64
2023/05/16 10:36:40;;;;;;;6.90;4.30;;;;;;;17.09;76.99;100395.96;110511;1210;99435;-64
2023/05/16 10:39:06;;;;;;;7.00;5.40;;;;;;;17.17;77.02;100404.39;110435;1212;140293;-64
2023/05/16 10:41:33;;;;;;;8.00;5.40;;;;;;;17.15;76.07;100410.70;110568;1212;95330;-65
2023/05/16 10:43:58;;;;;;;6.50;5.60;;;;;;;17.00;75.73;100414.92;110668;1212;99189;-64
2023/05/16 10:46:27;;;;;;;7.70;5.70;;;;;;;16.86;75.25;100415.40;110677;1209;138098;-64
2023/05/16 10:48:52;;;;;;;7.50;5.00;;;;;;;16.92;75.60;100412.81;110976;1212;96336;-64
2023/05/16 10:51:32;;;;;;;14.30;7.10;;;;;;;17.15;75.94;100414.48;111035;1209;140197;-64
2023/05/16 10:54:07;;;;;;;11.00;6.30;;;;;;;17.37;76.16;100415.73;110976;1212;96336;-64
2023/05/16 10:56:33;;;;;;;8.00;6.60;;;;;;;17.50;75.84;100418.02;110799;1209;138451;-64
2023/05/16 10:58:59;;;;;;;6.80;5.30;;;;;;;17.53;74.84;100420.31;110964;1212;96251;-64
2023/05/16 11:01:34;;;;;;;9.10;6.10;;;;;;;17.52;74.07;100420.75;111043;1209;96140;-64
2023/05/16 11:04:03;;;;;;;8.70;6.10;;;;;;;17.53;73.56;100435.16;110952;1209;138734;-65
2023/05/16 11:06:42;;;;;;;8.40;5.30;;;;;;;17.47;73.05;100433.95;110858;1209;99440;-66
2023/05/16 11:09:12;;;;;;;10.70;5.70;;;;;;;17.44;72.04;100439.60;110884;1209;138169;-66
2023/05/16 11:11:40;;;;;;;8.70;5.60;;;;;;;17.21;71.92;100438.98;111002;1208;96343;-66
2023/05/16 11:14:05;;;;;;;12.50;6.20;;;;;;;17.12;72.64;100436.60;110949;1208;110159;-65
2023/05/16 11:16:33;;;;;;;13.10;7.20;;;;;;;17.10;72.39;100435.80;110812;1210;139709;-66
2023/05/16 11:19:05;;;;;;;11.70;7.30;;;;;;;17.09;72.30;100441.48;111045;1210;96359;-66
2023/05/16 11:22:09;;;;;;;9.80;6.90;;;;;;;17.12;72.51;100439.14;110903;1212;138711;-64
2023/05/16 11:24:38;;;;;;;11.70;7.50;;;;;;;17.13;72.26;100448.21;110949;1212;96241;-64
2023/05/16 11:27:05;;;;;;;7.90;6.70;;;;;;;17.22;72.29;100457.88;111000;1209;138834;-65